sensor_id;sensor_type;location;lat;lon;timestamp;pressure;altitude;pressure_sealevel;temperature;humidity
18264;BME280;9258;48.668;9.172;2022-07-29T00:02:44;96428.72;;;20.20;100.00
18264;BME280;9258;48.668;9.172;2022-07-29T00:05:46;96426.06;;;20.20;100.00
18264;BME280;9258;48.668;9.172;2022-07-29T00:08:47;96422.50;;;20.11;100.00
18264;BME280;9258;48.668;9.172;2022-07-29T00:11:53;96420.72;;;20.06;100.00
18264;BME280;9258;48.668;9.172;2022-07-29T00:14:56;96420.81;;;20.01;100.00
18264;BME280;9258;48.668;9.172;2022-07-29T00:17:57;96413.94;;;20.00;100.00
18264;BME280;9258;48.668;9.172;2022-07-29T00:20:59;96404.97;;;19.96;100.00
18264;BME280;9258;48.668;9.172;2022-07-29T00:24:01;96417.88;;;20.03;100.00
18264;BME280;9258;48.668;9.172;2022-07-29T00:27:03;96421.78;;;19.92;100.00
18264;BME280;9258;48.668;9.172;2022-07-29T00:30:06;96412.69;;;19.79;100.00
18264;BME280;9258;48.668;9.172;2022-07-29T00:33:08;96413.97;;;19.82;100.00
18264;BME280;9258;48.668;9.172;2022-07-29T00:36:10;96414.63;;;19.73;100.00
18264;BME280;9258;48.668;9.172;2022-07-29T00:39:10;96413.00;;;19.77;100.00
18264;BME280;9258;48.668;9.172;2022-07-29T00:42:13;96413.63;;;19.69;100.00
18264;BME280;9258;48.668;9.172;2022-07-29T00:45:15;96406.84;;;19.63;100.00
18264;BME280;9258;48.668;9.172;2022-07-29T00:48:17;96407.63;;;19.64;100.00
18264;BME280;9258;48.668;9.172;2022-07-29T00:51:19;96397.38;;;19.57;100.00
18264;BME280;9258;48.668;9.172;2022-07-29T00:54:20;96394.72;;;19.57;100.00
18264;BME280;9258;48.668;9.172;2022-07-29T00:57:23;96391.94;;;19.67;100.00
18264;BME280;9258;48.668;9.172;2022-07-29T01:00:26;96393.56;;;19.63;100.00
18264;BME280;9258;48.668;9.172;2022-07-29T01:03:27;96388.28;;;19.63;100.00
18264;BME280;9258;48.668;9.172;2022-07-29T01:06:29;96379.88;;;19.56;100.00
18264;BME280;9258;48.668;9.172;2022-07-29T01:09:32;96378.44;;;19.64;100.00
18264;BME280;9258;48.668;9.172;2022-07-29T01:12:36;96375.00;;;19.63;100.00
18264;BME280;9258;48.668;9.172;2022-07-29T01:15:42;96373.03;;;19.55;100.00
18264;BME280;9258;48.668;9.172;2022-07-29T01:18:46;96377.81;;;19.53;100.00
18264;BME280;9258;48.668;9.172;2022-07-29T01:21:53;96370.97;;;19.47;100.00
18264;BME280;9258;48.668;9.172;2022-07-29T01:25:10;96377.06;;;19.48;100.00
18264;BME280;9258;48.668;9.172;2022-07-29T01:28:45;96370.38;;;19.55;100.00
18264;BME280;9258;48.668;9.172;2022-07-29T01:31:51;96372.31;;;19.50;100.00
18264;BME280;9258;48.668;9.172;2022-07-29T01:34:58;96378.94;;;19.47;100.00
18264;BME280;9258;48.668;9.172;2022-07-29T01:38:07;96374.81;;;19.41;100.00
18264;BME280;9258;48.668;9.172;2022-07-29T01:41:12;96384.91;;;19.39;100.00
18264;BME280;9258;48.668;9.172;2022-07-29T01:44:20;96384.13;;;19.38;100.00
18264;BME280;9258;48.668;9.172;2022-07-29T01:47:27;96383.38;;;19.33;100.00
18264;BME280;9258;48.668;9.172;2022-07-29T01:50:35;96378.97;;;19.28;100.00
18264;BME280;9258;48.668;9.172;2022-07-29T01:53:42;96372.88;;;19.28;100.00
18264;BME280;9258;48.668;9.172;2022-07-29T01:56:47;96370.28;;;19.23;100.00
18264;BME280;9258;48.668;9.172;2022-07-29T01:59:52;96364.91;;;19.28;100.00
18264;BME280;9258;48.668;9.172;2022-07-29T02:02:59;96376.31;;;19.28;100.00
18264;BME280;9258;48.668;9.172;2022-07-29T02:06:05;96369.22;;;19.24;100.00
18264;BME280;9258;48.668;9.172;2022-07-29T02:09:10;96367.63;;;19.23;100.00
18264;BME280;9258;48.668;9.172;2022-07-29T02:12:14;96362.56;;;19.26;100.00
18264;BME280;9258;48.668;9.172;2022-07-29T02:15:19;96362.13;;;19.19;100.00
18264;BME280;9258;48.668;9.172;2022-07-29T02:18:22;96358.97;;;19.17;100.00
18264;BME280;9258;48.668;9.172;2022-07-29T02:21:25;96362.28;;;19.28;100.00
18264;BME280;9258;48.668;9.172;2022-07-29T02:24:29;96360.75;;;19.22;100.00
18264;BME280;9258;48.668;9.172;2022-07-29T02:27:33;96357.66;;;19.33;100.00
18264;BME280;9258;48.668;9.172;2022-07-29T02:30:40;96350.22;;;19.35;100.00
18264;BME280;9258;48.668;9.172;2022-07-29T02:33:43;96354.81;;;19.30;100.00
18264;BME280;9258;48.668;9.172;2022-07-29T02:36:48;96356.69;;;19.29;100.00
18264;BME280;9258;48.668;9.172;2022-07-29T02:39:51;96350.88;;;19.27;100.00
18264;BME280;9258;48.668;9.172;2022-07-29T02:42:53;96356.25;;;19.22;100.00
18264;BME280;9258;48.668;9.172;2022-07-29T02:45:58;96351.88;;;19.13;100.00
18264;BME280;9258;48.668;9.172;2022-07-29T02:49:06;96347.75;;;19.06;100.00
18264;BME280;9258;48.668;9.172;2022-07-29T02:52:12;96347.75;;;19.06;100.00
18264;BME280;9258;48.668;9.172;2022-07-29T02:55:22;96347.22;;;19.04;100.00
18264;BME280;9258;48.668;9.172;2022-07-29T02:58:28;96342.78;;;19.00;100.00
18264;BME280;9258;48.668;9.172;2022-07-29T03:01:32;96346.00;;;18.97;100.00
18264;BME280;9258;48.668;9.172;2022-07-29T03:04:37;96346.66;;;18.89;100.00
18264;BME280;9258;48.668;9.172;2022-07-29T03:07:43;96351.38;;;18.92;100.00
18264;BME280;9258;48.668;9.172;2022-07-29T03:10:47;96353.44;;;18.76;100.00
18264;BME280;9258;48.668;9.172;2022-07-29T03:13:49;96349.78;;;18.72;100.00
18264;BME280;9258;48.668;9.172;2022-07-29T03:16:52;96354.09;;;18.68;100.00
18264;BME280;9258;48.668;9.172;2022-07-29T03:19:54;96347.88;;;18.54;100.00
18264;BME280;9258;48.668;9.172;2022-07-29T03:22:56;96355.03;;;18.53;100.00
18264;BME280;9258;48.668;9.172;2022-07-29T03:25:57;96344.47;;;18.48;100.00
18264;BME280;9258;48.668;9.172;2022-07-29T03:28:59;96356.31;;;18.56;100.00
18264;BME280;9258;48.668;9.172;2022-07-29T03:32:04;96360.16;;;18.45;100.00
18264;BME280;9258;48.668;9.172;2022-07-29T03:35:06;96353.84;;;18.41;100.00
18264;BME280;9258;48.668;9.172;2022-07-29T03:38:08;96357.00;;;18.43;100.00
18264;BME280;9258;48.668;9.172;2022-07-29T03:41:11;96362.03;;;18.44;100.00
18264;BME280;9258;48.668;9.172;2022-07-29T03:44:15;96360.97;;;18.45;100.00
18264;BME280;9258;48.668;9.172;2022-07-29T03:47:22;96368.91;;;18.45;100.00
18264;BME280;9258;48.668;9.172;2022-07-29T03:50:26;96368.13;;;18.45;100.00
18264;BME280;9258;48.668;9.172;2022-07-29T03:53:28;96369.97;;;18.44;100.00
18264;BME280;9258;48.668;9.172;2022-07-29T03:56:34;96365.47;;;18.45;100.00
18264;BME280;9258;48.668;9.172;2022-07-29T03:59:36;96366.81;;;18.42;100.00
18264;BME280;9258;48.668;9.172;2022-07-29T04:02:39;96369.97;;;18.44;100.00
18264;BME280;9258;48.668;9.172;2022-07-29T04:05:45;96371.03;;;18.43;100.00
18264;BME280;9258;48.668;9.172;2022-07-29T04:08:46;96377.13;;;18.44;100.00
18264;BME280;9258;48.668;9.172;2022-07-29T04:11:48;96376.84;;;18.45;100.00
18264;BME280;9258;48.668;9.172;2022-07-29T04:14:49;96385.31;;;18.47;100.00
18264;BME280;9258;48.668;9.172;2022-07-29T04:17:52;96389.72;;;18.52;100.00
18264;BME280;9258;48.668;9.172;2022-07-29T04:20:54;96391.53;;;18.56;100.00
18264;BME280;9258;48.668;9.172;2022-07-29T04:23:55;96383.09;;;18.54;100.00
18264;BME280;9258;48.668;9.172;2022-07-29T04:26:57;96385.75;;;18.54;100.00
18264;BME280;9258;48.668;9.172;2022-07-29T04:29:58;96375.16;;;18.54;100.00
18264;BME280;9258;48.668;9.172;2022-07-29T04:33:03;96383.34;;;18.58;100.00
18264;BME280;9258;48.668;9.172;2022-07-29T04:36:05;96382.28;;;18.59;100.00
18264;BME280;9258;48.668;9.172;2022-07-29T04:39:07;96386.47;;;18.60;100.00
18264;BME280;9258;48.668;9.172;2022-07-29T04:42:08;96377.66;;;18.69;100.00
18264;BME280;9258;48.668;9.172;2022-07-29T04:45:10;96377.44;;;18.85;100.00
18264;BME280;9258;48.668;9.172;2022-07-29T04:48:13;96384.34;;;19.04;100.00
18264;BME280;9258;48.668;9.172;2022-07-29T04:51:15;96390.28;;;19.15;100.00
18264;BME280;9258;48.668;9.172;2022-07-29T04:54:16;96382.06;;;19.17;100.00
18264;BME280;9258;48.668;9.172;2022-07-29T04:57:18;96383.13;;;19.16;100.00
18264;BME280;9258;48.668;9.172;2022-07-29T05:00:19;96383.13;;;19.16;100.00
18264;BME280;9258;48.668;9.172;2022-07-29T05:03:24;96387.72;;;19.29;100.00
18264;BME280;9258;48.668;9.172;2022-07-29T05:06:26;96379.31;;;19.40;100.00
18264;BME280;9258;48.668;9.172;2022-07-29T05:09:27;96388.25;;;19.44;100.00
18264;BME280;9258;48.668;9.172;2022-07-29T05:12:29;96392.78;;;19.63;100.00
18264;BME280;9258;48.668;9.172;2022-07-29T05:15:30;96391.94;;;19.81;100.00
18264;BME280;9258;48.668;9.172;2022-07-29T05:18:33;96399.38;;;19.98;100.00
18264;BME280;9258;48.668;9.172;2022-07-29T05:21:35;96391.16;;;20.13;100.00
18264;BME280;9258;48.668;9.172;2022-07-29T05:24:36;96396.47;;;20.27;100.00
18264;BME280;9258;48.668;9.172;2022-07-29T05:27:38;96393.22;;;20.30;100.00
18264;BME280;9258;48.668;9.172;2022-07-29T05:30:40;96392.47;;;20.43;100.00
18264;BME280;9258;48.668;9.172;2022-07-29T05:33:43;96385.69;;;20.51;100.00
18264;BME280;9258;48.668;9.172;2022-07-29T05:36:44;96385.06;;;20.81;100.00
18264;BME280;9258;48.668;9.172;2022-07-29T05:39:46;96394.69;;;20.91;100.00
18264;BME280;9258;48.668;9.172;2022-07-29T05:42:48;96391.44;;;20.94;100.00
18264;BME280;9258;48.668;9.172;2022-07-29T05:45:49;96403.59;;;20.86;100.00
18264;BME280;9258;48.668;9.172;2022-07-29T05:48:52;96396.03;;;21.15;100.00
18264;BME280;9258;48.668;9.172;2022-07-29T05:51:53;96410.91;;;21.16;100.00
18264;BME280;9258;48.668;9.172;2022-07-29T05:54:55;96406.97;;;21.14;100.00
18264;BME280;9258;48.668;9.172;2022-07-29T05:57:56;96404.19;;;21.33;100.00
18264;BME280;9258;48.668;9.172;2022-07-29T06:00:58;96415.69;;;21.42;100.00
18264;BME280;9258;48.668;9.172;2022-07-29T06:04:02;96412.91;;;21.25;100.00
18264;BME280;9258;48.668;9.172;2022-07-29T06:07:03;96415.66;;;21.06;100.00
18264;BME280;9258;48.668;9.172;2022-07-29T06:10:05;96412.41;;;21.23;100.00
18264;BME280;9258;48.668;9.172;2022-07-29T06:13:07;96418.88;;;21.16;100.00
18264;BME280;9258;48.668;9.172;2022-07-29T06:16:09;96418.38;;;21.14;100.00
18264;BME280;9258;48.668;9.172;2022-07-29T06:19:12;96416.72;;;21.32;100.00
18264;BME280;9258;48.668;9.172;2022-07-29T06:22:15;96429.25;;;21.76;100.00
18264;BME280;9258;48.668;9.172;2022-07-29T06:25:16;96422.97;;;21.95;100.00
18264;BME280;9258;48.668;9.172;2022-07-29T06:28:18;96423.88;;;22.12;100.00
18264;BME280;9258;48.668;9.172;2022-07-29T06:31:20;96427.56;;;22.25;100.00
18264;BME280;9258;48.668;9.172;2022-07-29T06:34:23;96426.72;;;22.16;100.00
18264;BME280;9258;48.668;9.172;2022-07-29T06:37:26;96423.63;;;22.62;100.00
18264;BME280;9258;48.668;9.172;2022-07-29T06:40:28;96424.16;;;22.73;100.00
18264;BME280;9258;48.668;9.172;2022-07-29T06:43:47;96430.69;;;22.58;100.00
18264;BME280;9258;48.668;9.172;2022-07-29T06:46:51;96430.94;;;22.79;100.00
18264;BME280;9258;48.668;9.172;2022-07-29T06:49:54;96429.28;;;23.09;98.04
18264;BME280;9258;48.668;9.172;2022-07-29T06:52:56;96440.00;;;23.34;97.41
18264;BME280;9258;48.668;9.172;2022-07-29T06:55:58;96442.84;;;23.47;94.86
18264;BME280;9258;48.668;9.172;2022-07-29T06:59:00;96444.59;;;23.68;91.69
18264;BME280;9258;48.668;9.172;2022-07-29T07:02:02;96431.53;;;23.41;95.30
18264;BME280;9258;48.668;9.172;2022-07-29T07:05:06;96439.22;;;23.17;97.05
18264;BME280;9258;48.668;9.172;2022-07-29T07:08:09;96440.44;;;23.11;98.67
18264;BME280;9258;48.668;9.172;2022-07-29T07:11:10;96437.47;;;23.21;98.63
18264;BME280;9258;48.668;9.172;2022-07-29T07:14:12;96447.25;;;23.68;96.31
18264;BME280;9258;48.668;9.172;2022-07-29T07:17:13;96451.81;;;23.85;94.70
18264;BME280;9258;48.668;9.172;2022-07-29T07:20:17;96458.38;;;24.05;93.30
18264;BME280;9258;48.668;9.172;2022-07-29T07:23:19;96454.00;;;24.09;91.81
18264;BME280;9258;48.668;9.172;2022-07-29T07:26:21;96465.78;;;23.82;95.26
18264;BME280;9258;48.668;9.172;2022-07-29T07:29:23;96462.19;;;23.52;97.55
18264;BME280;9258;48.668;9.172;2022-07-29T07:32:25;96465.31;;;23.80;95.01
18264;BME280;9258;48.668;9.172;2022-07-29T07:35:31;96467.84;;;23.85;94.74
18264;BME280;9258;48.668;9.172;2022-07-29T07:38:34;96467.63;;;24.16;92.55
18264;BME280;9258;48.668;9.172;2022-07-29T07:41:35;96463.56;;;24.10;91.05
18264;BME280;9258;48.668;9.172;2022-07-29T07:44:37;96466.22;;;24.36;88.21
18264;BME280;9258;48.668;9.172;2022-07-29T07:47:39;96465.09;;;24.46;86.87
18264;BME280;9258;48.668;9.172;2022-07-29T07:50:42;96468.19;;;24.56;89.01
18264;BME280;9258;48.668;9.172;2022-07-29T07:53:45;96467.94;;;24.78;88.07
18264;BME280;9258;48.668;9.172;2022-07-29T07:56:49;96477.19;;;24.98;87.11
18264;BME280;9258;48.668;9.172;2022-07-29T07:59:52;96465.41;;;25.20;84.47
18264;BME280;9258;48.668;9.172;2022-07-29T08:02:54;96461.84;;;25.37;82.72
18264;BME280;9258;48.668;9.172;2022-07-29T08:05:57;96476.97;;;25.83;80.43
18264;BME280;9258;48.668;9.172;2022-07-29T08:08:59;96475.09;;;26.49;78.10
18264;BME280;9258;48.668;9.172;2022-07-29T08:12:02;96472.59;;;27.02;72.60
18264;BME280;9258;48.668;9.172;2022-07-29T08:15:07;96474.16;;;27.39;70.54
18264;BME280;9258;48.668;9.172;2022-07-29T08:18:09;96479.19;;;27.41;70.63
18264;BME280;9258;48.668;9.172;2022-07-29T08:21:14;96470.41;;;27.68;67.38
18264;BME280;9258;48.668;9.172;2022-07-29T08:24:16;96476.34;;;27.49;69.48
18264;BME280;9258;48.668;9.172;2022-07-29T08:27:40;96477.28;;;28.21;62.81
18264;BME280;9258;48.668;9.172;2022-07-29T08:30:42;96481.78;;;28.77;58.89
18264;BME280;9258;48.668;9.172;2022-07-29T08:33:44;96478.91;;;29.32;57.22
18264;BME280;9258;48.668;9.172;2022-07-29T08:36:48;96476.38;;;29.24;51.82
18264;BME280;9258;48.668;9.172;2022-07-29T08:39:50;96479.34;;;29.69;51.09
18264;BME280;9258;48.668;9.172;2022-07-29T08:42:52;96475.78;;;29.85;50.19
18264;BME280;9258;48.668;9.172;2022-07-29T08:45:55;96478.63;;;29.92;50.22
18264;BME280;9258;48.668;9.172;2022-07-29T08:48:57;96470.66;;;30.37;47.82
18264;BME280;9258;48.668;9.172;2022-07-29T08:52:02;96473.03;;;30.62;44.65
18264;BME280;9258;48.668;9.172;2022-07-29T08:55:07;96481.19;;;30.88;45.31
18264;BME280;9258;48.668;9.172;2022-07-29T08:58:09;96482.72;;;31.35;44.13
18264;BME280;9258;48.668;9.172;2022-07-29T09:01:17;96486.06;;;31.81;41.80
18264;BME280;9258;48.668;9.172;2022-07-29T09:04:25;96486.63;;;32.27;40.81
18264;BME280;9258;48.668;9.172;2022-07-29T09:07:33;96494.31;;;32.59;40.52
18264;BME280;9258;48.668;9.172;2022-07-29T09:10:36;96489.88;;;32.43;40.87
18264;BME280;9258;48.668;9.172;2022-07-29T09:13:47;96482.44;;;32.74;39.27
18264;BME280;9258;48.668;9.172;2022-07-29T09:16:53;96481.28;;;32.34;39.64
18264;BME280;9258;48.668;9.172;2022-07-29T09:20:08;96489.94;;;32.87;38.73
18264;BME280;9258;48.668;9.172;2022-07-29T09:23:16;96490.69;;;33.36;36.86
18264;BME280;9258;48.668;9.172;2022-07-29T09:26:19;96484.44;;;33.24;38.22
18264;BME280;9258;48.668;9.172;2022-07-29T09:29:23;96477.97;;;34.30;35.89
18264;BME280;9258;48.668;9.172;2022-07-29T09:32:28;96478.84;;;34.62;35.28
18264;BME280;9258;48.668;9.172;2022-07-29T09:35:43;96482.69;;;34.58;34.75
18264;BME280;9258;48.668;9.172;2022-07-29T10:37:03;96440.03;;;38.79;27.54
18264;BME280;9258;48.668;9.172;2022-07-29T10:44:06;96431.66;;;35.90;31.17
18264;BME280;9258;48.668;9.172;2022-07-29T10:47:19;96413.19;;;35.03;32.42
18264;BME280;9258;48.668;9.172;2022-07-29T10:50:24;96412.44;;;34.56;33.00
18264;BME280;9258;48.668;9.172;2022-07-29T10:53:45;96411.38;;;33.60;34.92
18264;BME280;9258;48.668;9.172;2022-07-29T10:56:48;96420.84;;;33.18;34.90
18264;BME280;9258;48.668;9.172;2022-07-29T11:03:44;96448.94;;;30.99;39.49
18264;BME280;9258;48.668;9.172;2022-07-29T11:07:09;96453.78;;;29.63;41.91
18264;BME280;9258;48.668;9.172;2022-07-29T11:10:23;96439.16;;;28.79;44.45
18264;BME280;9258;48.668;9.172;2022-07-29T11:13:48;96452.22;;;28.05;49.23
18264;BME280;9258;48.668;9.172;2022-07-29T11:17:02;96455.44;;;27.43;53.16
18264;BME280;9258;48.668;9.172;2022-07-29T11:20:34;96469.13;;;27.01;59.24
18264;BME280;9258;48.668;9.172;2022-07-29T11:23:37;96486.84;;;26.69;66.92
18264;BME280;9258;48.668;9.172;2022-07-29T11:26:39;96497.38;;;25.96;73.34
18264;BME280;9258;48.668;9.172;2022-07-29T11:29:50;96497.78;;;25.57;77.19
18264;BME280;9258;48.668;9.172;2022-07-29T11:32:52;96502.06;;;24.90;83.25
18264;BME280;9258;48.668;9.172;2022-07-29T11:36:12;96508.19;;;24.44;87.28
18264;BME280;9258;48.668;9.172;2022-07-29T11:39:25;96504.75;;;24.09;94.18
18264;BME280;9258;48.668;9.172;2022-07-29T11:42:41;96519.84;;;23.79;92.88
18264;BME280;9258;48.668;9.172;2022-07-29T11:45:46;96534.94;;;23.92;80.84
18264;BME280;9258;48.668;9.172;2022-07-29T11:48:48;96528.63;;;23.62;77.60
18264;BME280;9258;48.668;9.172;2022-07-29T11:51:52;96523.81;;;23.25;77.88
18264;BME280;9258;48.668;9.172;2022-07-29T11:54:57;96518.53;;;22.94;84.86
18264;BME280;9258;48.668;9.172;2022-07-29T11:58:00;96501.38;;;22.78;82.28
18264;BME280;9258;48.668;9.172;2022-07-29T12:01:01;96502.88;;;22.70;82.88
18264;BME280;9258;48.668;9.172;2022-07-29T12:04:04;96502.50;;;22.54;90.70
18264;BME280;9258;48.668;9.172;2022-07-29T12:07:08;96499.94;;;22.18;92.10
18264;BME280;9258;48.668;9.172;2022-07-29T12:10:10;96497.69;;;21.98;91.42
18264;BME280;9258;48.668;9.172;2022-07-29T12:13:12;96496.84;;;21.89;91.33
18264;BME280;9258;48.668;9.172;2022-07-29T12:16:14;96494.78;;;21.86;92.15
18264;BME280;9258;48.668;9.172;2022-07-29T12:19:16;96491.13;;;21.73;99.47
18264;BME280;9258;48.668;9.172;2022-07-29T12:22:26;96485.34;;;21.80;100.00
18264;BME280;9258;48.668;9.172;2022-07-29T12:25:33;96483.03;;;21.65;100.00
18264;BME280;9258;48.668;9.172;2022-07-29T12:28:37;96471.72;;;21.59;100.00
18264;BME280;9258;48.668;9.172;2022-07-29T12:31:38;96481.22;;;21.38;100.00
18264;BME280;9258;48.668;9.172;2022-07-29T12:34:40;96481.56;;;21.23;100.00
18264;BME280;9258;48.668;9.172;2022-07-29T12:37:44;96472.50;;;21.24;100.00
18264;BME280;9258;48.668;9.172;2022-07-29T12:40:47;96465.16;;;21.43;100.00
18264;BME280;9258;48.668;9.172;2022-07-29T12:43:53;96458.81;;;21.52;100.00
18264;BME280;9258;48.668;9.172;2022-07-29T12:47:01;96461.44;;;21.66;100.00
18264;BME280;9258;48.668;9.172;2022-07-29T12:50:10;96461.94;;;21.68;100.00
18264;BME280;9258;48.668;9.172;2022-07-29T12:53:13;96466.78;;;21.66;100.00
18264;BME280;9258;48.668;9.172;2022-07-29T12:56:15;96468.94;;;21.64;100.00
18264;BME280;9258;48.668;9.172;2022-07-29T12:59:19;96474.34;;;21.73;100.00
18264;BME280;9258;48.668;9.172;2022-07-29T13:02:21;96470.22;;;21.89;100.00
18264;BME280;9258;48.668;9.172;2022-07-29T13:05:23;96470.09;;;22.08;100.00
18264;BME280;9258;48.668;9.172;2022-07-29T13:08:26;96486.47;;;22.23;100.00
18264;BME280;9258;48.668;9.172;2022-07-29T13:11:30;96507.91;;;22.41;100.00
18264;BME280;9258;48.668;9.172;2022-07-29T13:14:32;96537.00;;;21.92;100.00
18264;BME280;9258;48.668;9.172;2022-07-29T13:17:40;96522.47;;;21.63;100.00
18264;BME280;9258;48.668;9.172;2022-07-29T13:20:42;96510.66;;;21.55;100.00
18264;BME280;9258;48.668;9.172;2022-07-29T13:23:45;96511.34;;;21.61;100.00
18264;BME280;9258;48.668;9.172;2022-07-29T13:26:48;96512.25;;;21.42;100.00
18264;BME280;9258;48.668;9.172;2022-07-29T13:29:49;96513.28;;;21.33;100.00
18264;BME280;9258;48.668;9.172;2022-07-29T13:32:52;96510.03;;;21.36;100.00
18264;BME280;9258;48.668;9.172;2022-07-29T13:35:55;96507.16;;;21.46;100.00
18264;BME280;9258;48.668;9.172;2022-07-29T13:38:57;96497.72;;;21.62;100.00
18264;BME280;9258;48.668;9.172;2022-07-29T13:42:01;96495.22;;;21.79;100.00
18264;BME280;9258;48.668;9.172;2022-07-29T13:45:03;96497.97;;;22.10;100.00
18264;BME280;9258;48.668;9.172;2022-07-29T13:48:06;96494.56;;;22.41;100.00
18264;BME280;9258;48.668;9.172;2022-07-29T13:51:08;96488.09;;;22.64;100.00
18264;BME280;9258;48.668;9.172;2022-07-29T13:54:11;96489.13;;;22.77;100.00
18264;BME280;9258;48.668;9.172;2022-07-29T13:57:13;96482.88;;;22.81;100.00
18264;BME280;9258;48.668;9.172;2022-07-29T14:00:15;96472.28;;;23.07;100.00
18264;BME280;9258;48.668;9.172;2022-07-29T14:03:18;96466.38;;;23.27;100.00
18264;BME280;9258;48.668;9.172;2022-07-29T14:06:20;96469.66;;;23.24;100.00
18264;BME280;9258;48.668;9.172;2022-07-29T14:09:23;96467.47;;;23.26;100.00
18264;BME280;9258;48.668;9.172;2022-07-29T14:12:24;96464.19;;;23.29;100.00
18264;BME280;9258;48.668;9.172;2022-07-29T14:15:25;96460.91;;;23.41;100.00
18264;BME280;9258;48.668;9.172;2022-07-29T14:18:27;96471.31;;;23.60;100.00
18264;BME280;9258;48.668;9.172;2022-07-29T14:21:28;96469.25;;;23.83;100.00
18264;BME280;9258;48.668;9.172;2022-07-29T14:24:32;96467.84;;;23.77;100.00
18264;BME280;9258;48.668;9.172;2022-07-29T14:27:34;96461.88;;;23.88;100.00
18264;BME280;9258;48.668;9.172;2022-07-29T14:30:35;96463.59;;;23.93;100.00
18264;BME280;9258;48.668;9.172;2022-07-29T14:33:37;96470.81;;;24.01;100.00
18264;BME280;9258;48.668;9.172;2022-07-29T14:36:38;96474.41;;;24.05;100.00
18264;BME280;9258;48.668;9.172;2022-07-29T14:39:41;96476.97;;;24.01;100.00
18264;BME280;9258;48.668;9.172;2022-07-29T14:42:42;96469.84;;;24.05;100.00
18264;BME280;9258;48.668;9.172;2022-07-29T14:45:44;96470.66;;;24.15;100.00
18264;BME280;9258;48.668;9.172;2022-07-29T14:48:45;96473.94;;;24.20;100.00
18264;BME280;9258;48.668;9.172;2022-07-29T14:51:47;96476.28;;;24.30;100.00
18264;BME280;9258;48.668;9.172;2022-07-29T14:54:49;96484.78;;;24.32;100.00
18264;BME280;9258;48.668;9.172;2022-07-29T14:57:51;96481.63;;;24.30;100.00
18264;BME280;9258;48.668;9.172;2022-07-29T15:00:53;96484.09;;;24.53;100.00
18264;BME280;9258;48.668;9.172;2022-07-29T15:03:56;96485.22;;;24.43;100.00
18264;BME280;9258;48.668;9.172;2022-07-29T15:06:57;96491.41;;;24.09;100.00
18264;BME280;9258;48.668;9.172;2022-07-29T15:10:00;96486.84;;;23.84;100.00
18264;BME280;9258;48.668;9.172;2022-07-29T15:13:02;96485.91;;;23.80;100.00
18264;BME280;9258;48.668;9.172;2022-07-29T15:16:05;96488.72;;;23.92;100.00
18264;BME280;9258;48.668;9.172;2022-07-29T15:19:06;96488.75;;;23.83;100.00
18264;BME280;9258;48.668;9.172;2022-07-29T15:22:08;96482.31;;;23.84;100.00
18264;BME280;9258;48.668;9.172;2022-07-29T15:25:11;96487.47;;;23.72;100.00
18264;BME280;9258;48.668;9.172;2022-07-29T15:28:12;96482.44;;;23.79;100.00
18264;BME280;9258;48.668;9.172;2022-07-29T15:31:13;96483.56;;;23.69;100.00
18264;BME280;9258;48.668;9.172;2022-07-29T15:34:15;96481.06;;;23.90;100.00
18264;BME280;9258;48.668;9.172;2022-07-29T15:37:16;96481.81;;;23.82;100.00
18264;BME280;9258;48.668;9.172;2022-07-29T15:40:19;96474.13;;;23.72;100.00
18264;BME280;9258;48.668;9.172;2022-07-29T15:43:21;96483.72;;;23.64;100.00
18264;BME280;9258;48.668;9.172;2022-07-29T15:46:22;96477.44;;;23.60;100.00
18264;BME280;9258;48.668;9.172;2022-07-29T15:49:42;96473.81;;;23.56;100.00
18264;BME280;9258;48.668;9.172;2022-07-29T15:52:43;96479.00;;;23.61;100.00
18264;BME280;9258;48.668;9.172;2022-07-29T15:55:47;96478.22;;;23.52;100.00
18264;BME280;9258;48.668;9.172;2022-07-29T15:58:49;96482.75;;;23.52;100.00
18264;BME280;9258;48.668;9.172;2022-07-29T16:01:50;96483.66;;;23.47;100.00
18264;BME280;9258;48.668;9.172;2022-07-29T16:04:52;96486.38;;;23.64;100.00
18264;BME280;9258;48.668;9.172;2022-07-29T16:07:54;96484.81;;;23.63;100.00
18264;BME280;9258;48.668;9.172;2022-07-29T16:10:57;96478.06;;;23.66;100.00
18264;BME280;9258;48.668;9.172;2022-07-29T16:13:59;96479.47;;;23.72;100.00
18264;BME280;9258;48.668;9.172;2022-07-29T16:17:00;96490.94;;;23.98;100.00
18264;BME280;9258;48.668;9.172;2022-07-29T16:20:03;96487.31;;;23.94;100.00
18264;BME280;9258;48.668;9.172;2022-07-29T16:23:06;96485.91;;;23.88;100.00
18264;BME280;9258;48.668;9.172;2022-07-29T16:26:10;96488.25;;;23.81;100.00
18264;BME280;9258;48.668;9.172;2022-07-29T16:29:11;96484.66;;;23.94;100.00
18264;BME280;9258;48.668;9.172;2022-07-29T16:32:13;96487.19;;;23.91;100.00
18264;BME280;9258;48.668;9.172;2022-07-29T16:35:14;96484.00;;;23.80;100.00
18264;BME280;9258;48.668;9.172;2022-07-29T16:38:16;96487.03;;;23.79;100.00
18264;BME280;9258;48.668;9.172;2022-07-29T16:41:19;96485.75;;;23.67;100.00
18264;BME280;9258;48.668;9.172;2022-07-29T16:44:20;96488.44;;;23.85;100.00
18264;BME280;9258;48.668;9.172;2022-07-29T16:47:21;96484.97;;;23.76;100.00
18264;BME280;9258;48.668;9.172;2022-07-29T16:50:23;96486.53;;;23.68;100.00
18264;BME280;9258;48.668;9.172;2022-07-29T16:53:26;96479.78;;;23.62;100.00
18264;BME280;9258;48.668;9.172;2022-07-29T16:56:29;96479.16;;;23.65;100.00
18264;BME280;9258;48.668;9.172;2022-07-29T16:59:31;96479.78;;;23.88;100.00
18264;BME280;9258;48.668;9.172;2022-07-29T17:02:32;96483.09;;;23.85;100.00
18264;BME280;9258;48.668;9.172;2022-07-29T17:05:33;96479.16;;;23.74;100.00
18264;BME280;9258;48.668;9.172;2022-07-29T17:08:35;96487.00;;;23.70;100.00
18264;BME280;9258;48.668;9.172;2022-07-29T17:11:38;96489.84;;;23.65;100.00
18264;BME280;9258;48.668;9.172;2022-07-29T17:14:40;96488.59;;;23.62;100.00
18264;BME280;9258;48.668;9.172;2022-07-29T17:17:42;96491.25;;;23.62;100.00
18264;BME280;9258;48.668;9.172;2022-07-29T17:20:43;96491.25;;;23.62;100.00
18264;BME280;9258;48.668;9.172;2022-07-29T17:23:46;96492.97;;;23.58;100.00